Stations météo

réclame
Mon MeteoGroup
Dunstaffnage, Grande-Bretagne (99006): Température de l'air & dewpoint: 21.05.2020 16:00:00 - 27.05.2020 16:00:00 (BST)Dunstaffnage, Grande-Bretagne (99006): Température de l'air -20cm: 21.05.2020 16:00:00 - 27.05.2020 16:00:00 (BST)Dunstaffnage, Grande-Bretagne (99006): Vitesse du vent & gusts: 21.05.2020 16:00:00 - 27.05.2020 16:00:00 (BST)Dunstaffnage, Grande-Bretagne (99006): Direction du vent: 21.05.2020 16:00:00 - 27.05.2020 16:00:00 (BST)Dunstaffnage, Grande-Bretagne (99006): Quantités de précipitations: 21.05.2020 16:00:00 - 27.05.2020 16:00:00 (BST)
Date & Time tt [°C] td [°C] tt -20cm [°C] ff [km/h] ff [knt] fx [km/h] fx [knt] dd rr [mm]
27.05.2020 16:00:00 - - - - - - - - 0,0
27.05.2020 15:00:00 15,7 9,0 - 13 7 - - W 0,0
27.05.2020 14:00:00 15,9 9,6 - 11 6 - - W 0,0
27.05.2020 13:00:00 15,6 10,8 - 11 6 - - W 0,0
27.05.2020 12:00:00 14,9 10,3 - 11 6 - - WNW 0,0
27.05.2020 11:00:00 13,2 9,9 - 11 6 - - W 0,0
27.05.2020 10:00:00 12,7 9,3 12,0 11 6 - - W 0,0
27.05.2020 09:00:00 11,4 9,3 - 4 2 - - ENE 0,0
27.05.2020 08:00:00 9,8 8,9 - 5 3 - - ENE 0,0
27.05.2020 07:00:00 9,4 8,7 - 5 3 - - E 0,0
27.05.2020 06:00:00 9,0 8,3 - 5 3 - - SSW 0,0
27.05.2020 05:00:00 8,5 7,6 - 2 1 - - SSW 0,0
27.05.2020 04:00:00 8,5 7,8 - 4 2 - - SW 0,0
27.05.2020 03:00:00 8,5 7,9 - 2 1 - - W 0,0
27.05.2020 02:00:00 8,1 7,4 - 4 2 - - SSW 0,0
27.05.2020 01:00:00 8,1 7,4 - 4 2 - - SW 0,0
27.05.2020 00:00:00 7,9 6,9 - 2 1 - - SSW 0,0
26.05.2020 23:00:00 8,5 6,9 - 4 2 - - WSW 0,0
26.05.2020 22:00:00 9,9 7,1 - 5 3 - - SW 0,0
26.05.2020 21:00:00 11,6 7,9 - 8 4 - - SW 0,0
26.05.2020 20:00:00 11,9 9,1 - 9 5 - - SW 0,0
26.05.2020 19:00:00 12,5 8,6 - 16 9 - - SW 0,0
26.05.2020 18:00:00 15,0 8,0 - 15 8 - - W 0,0
26.05.2020 17:00:00 14,3 7,6 - 11 6 - - W 0,0
26.05.2020 16:00:00 13,9 7,9 - 15 8 - - WSW 0,0
26.05.2020 15:00:00 13,6 7,6 - 21 11 - - WSW 0,0
26.05.2020 14:00:00 13,6 8,7 - 13 7 - - SW 0,0
26.05.2020 13:00:00 12,8 10,1 - 13 7 - - W 0,0
26.05.2020 12:00:00 12,8 9,7 - 11 6 - - SW 0,0
26.05.2020 11:00:00 12,3 9,8 - 13 7 - - SW 0,0
26.05.2020 10:00:00 12,1 9,8 11,9 15 8 - - SW 0,0
26.05.2020 09:00:00 11,7 9,9 - 15 8 - - SW 0,0
26.05.2020 08:00:00 10,4 9,3 - 13 7 - - SW 0,0
26.05.2020 07:00:00 9,6 9,1 - 9 5 - - SSW 0,0
26.05.2020 06:00:00 9,0 8,6 - 11 6 - - SW 0,0
26.05.2020 05:00:00 8,8 8,3 - 11 6 - - SW 0,2
26.05.2020 04:00:00 9,1 8,6 - 13 7 - - SW 0,0
26.05.2020 03:00:00 9,2 8,7 - 9 5 - - SW 0,0
26.05.2020 02:00:00 9,8 9,4 - 13 7 - - SW 0,0
26.05.2020 01:00:00 10,9 10,5 - 13 7 - - SW 0,0
26.05.2020 00:00:00 11,4 10,9 - 15 8 - - WSW 0,4
25.05.2020 23:00:00 11,5 10,8 - 5 3 - - SSW 0,2
25.05.2020 22:00:00 11,5 10,7 - 8 4 - - S 0,2
25.05.2020 21:00:00 11,6 10,4 - 9 5 - - SSW 0,0
25.05.2020 20:00:00 12,9 9,7 - 9 5 - - S 0,0
25.05.2020 19:00:00 13,3 9,4 - 15 8 - - S 0,0
25.05.2020 18:00:00 13,5 9,7 - 16 9 - - SW 0,0
25.05.2020 17:00:00 15,0 8,7 - 21 11 - - SW 0,0
25.05.2020 16:00:00 16,2 7,6 - 16 9 - - SSW 0,0
25.05.2020 15:00:00 16,8 7,8 - 16 9 - - S 0,0
25.05.2020 14:00:00 16,7 8,3 - 21 11 - - S 0,0
25.05.2020 13:00:00 16,6 9,5 - 18 10 - - S 0,0
25.05.2020 12:00:00 16,4 7,8 - 22 12 - - S 0,0
25.05.2020 11:00:00 15,9 7,8 - 21 11 - - S 0,0
25.05.2020 10:00:00 12,4 9,7 11,0 9 5 - - WNW 0,0
25.05.2020 09:00:00 11,1 9,0 - 9 5 - - WNW 0,0
25.05.2020 08:00:00 10,7 9,0 - 2 1 - - W 0,0
25.05.2020 07:00:00 9,0 8,6 - 2 1 - - SSE 0,0
25.05.2020 06:00:00 6,6 5,9 - 2 1 - - SSW 0,0
25.05.2020 05:00:00 7,2 6,2 - 2 1 - - SSE 0,0
25.05.2020 04:00:00 8,7 7,6 - 9 5 - - ENE 0,0
25.05.2020 03:00:00 10,1 8,6 - 4 2 - - S 0,0
25.05.2020 02:00:00 9,8 8,5 - 11 6 - - ESE 0,0
25.05.2020 01:00:00 9,4 8,1 - 4 2 - - SE 0,0
25.05.2020 00:00:00 9,7 8,1 - 5 3 - - SW 0,0
24.05.2020 23:00:00 9,8 8,4 - 8 4 - - SSW 0,0
24.05.2020 22:00:00 10,3 8,4 - 8 4 - - SW 0,0
24.05.2020 21:00:00 11,2 8,8 - 11 6 - - SW 0,0
24.05.2020 20:00:00 11,9 9,2 - 15 8 - - SW 0,0
24.05.2020 19:00:00 12,6 9,8 - 16 9 - - SW 0,0
24.05.2020 18:00:00 12,7 9,7 - 16 9 - - SW 0,0
24.05.2020 17:00:00 12,0 9,7 - 16 9 - - SSW 0,0
24.05.2020 16:00:00 11,7 9,8 - 15 8 - - SW 0,0
24.05.2020 15:00:00 12,5 9,9 - 16 9 - - WSW 0,0
24.05.2020 14:00:00 12,5 9,6 - 18 10 - - WSW 0,0
24.05.2020 13:00:00 12,4 9,6 - 26 14 - - W 0,0
24.05.2020 12:00:00 12,0 10,1 - 22 12 - - W 0,0
24.05.2020 11:00:00 12,0 10,5 - 29 16 46 25 W 0,0
24.05.2020 10:00:00 11,4 10,5 11,0 31 17 46 25 W 0,2
24.05.2020 09:00:00 11,7 10,4 - 29 16 - - W 0,0
24.05.2020 08:00:00 11,7 10,3 - 29 16 46 25 W 0,0
24.05.2020 07:00:00 11,2 10,3 - 34 18 46 25 W 0,2
24.05.2020 06:00:00 10,9 10,2 - 24 13 - - W 0,0
24.05.2020 05:00:00 10,5 9,8 - 9 5 - - WSW 0,4
24.05.2020 04:00:00 10,6 9,6 - 18 10 - - WSW 0,2
24.05.2020 03:00:00 10,4 9,3 - 11 6 - - W 0,0
24.05.2020 02:00:00 10,1 9,1 - 9 5 - - SW 0,0
24.05.2020 01:00:00 10,3 8,2 - 9 5 - - W 0,0
24.05.2020 00:00:00 10,2 7,6 - 18 10 - - WSW 0,0
23.05.2020 23:00:00 10,3 7,1 - 21 11 - - WSW 0,0
23.05.2020 22:00:00 10,5 7,0 - 28 15 - - WSW 0,0
23.05.2020 21:00:00 10,5 7,7 - 29 16 - - WSW 0,0
23.05.2020 20:00:00 10,1 8,1 - 28 15 - - WSW 0,0
23.05.2020 19:00:00 10,7 7,9 - 29 16 54 29 WSW 0,0
23.05.2020 18:00:00 10,7 8,2 - 37 20 65 35 WSW 0,6
23.05.2020 17:00:00 10,4 8,5 - 41 22 61 33 WSW 0,6
23.05.2020 16:00:00 10,8 8,5 - 44 24 68 37 WSW 0,0
23.05.2020 15:00:00 10,9 8,7 - 41 22 61 33 WSW 0,4
23.05.2020 14:00:00 10,7 8,5 - 35 19 54 29 WSW 1,0
23.05.2020 13:00:00 10,2 8,8 - 28 15 59 32 WSW 0,4
23.05.2020 12:00:00 10,2 9,1 - 39 21 57 31 WSW 2,0
23.05.2020 11:00:00 9,8 8,9 - 37 20 65 35 WSW 1,4
23.05.2020 10:00:00 9,8 8,9 11,4 39 21 67 36 WSW 2,4
23.05.2020 09:00:00 9,6 8,9 - 29 16 67 36 WSW 2,8
23.05.2020 08:00:00 9,4 8,7 - 31 17 63 34 WSW 1,2
23.05.2020 07:00:00 8,9 8,0 - 34 18 67 36 SW 2,0
23.05.2020 06:00:00 8,2 7,0 - 26 14 68 37 SSW 4,2
23.05.2020 05:00:00 8,5 7,0 - 29 16 59 32 SW 3,6
23.05.2020 04:00:00 8,7 6,4 - 24 13 63 34 SSW 0,8
23.05.2020 03:00:00 10,3 5,6 - 31 17 55 30 SSW 0,0
23.05.2020 02:00:00 10,2 5,7 - 24 13 65 35 SW 0,0
23.05.2020 01:00:00 10,1 6,8 - 34 18 65 35 SW 1,2
23.05.2020 00:00:00 9,8 6,6 - 28 15 61 33 SSW 0,4
22.05.2020 23:00:00 11,0 6,2 - 26 14 72 39 SW 0,0
22.05.2020 22:00:00 11,4 5,6 - 24 13 70 38 SW 0,0
22.05.2020 21:00:00 11,7 5,8 - 24 13 55 30 SW 0,0
22.05.2020 20:00:00 11,5 5,9 - 26 14 65 35 SW 0,0
22.05.2020 19:00:00 11,3 6,5 - 28 15 59 32 SW 1,4
22.05.2020 18:00:00 10,4 7,7 - 24 13 55 30 SSW 1,2
22.05.2020 17:00:00 11,3 7,9 - 28 15 57 31 SSW 0,4
22.05.2020 16:00:00 10,5 8,9 - 28 15 54 29 S 1,6
22.05.2020 15:00:00 10,5 9,1 - 24 13 61 33 S 1,6
22.05.2020 14:00:00 11,3 8,9 - 24 13 52 28 S 0,4
22.05.2020 13:00:00 11,3 9,4 - 26 14 46 25 S 1,0
22.05.2020 12:00:00 11,2 9,2 - 24 13 46 25 S 1,4
22.05.2020 11:00:00 10,6 8,8 - 24 13 52 28 S 2,0
22.05.2020 10:00:00 10,8 8,6 12,7 18 10 - - S 0,8
22.05.2020 09:00:00 12,1 7,6 - 16 9 - - SSE 0,0
22.05.2020 08:00:00 11,9 8,2 - 18 10 - - S 0,0
22.05.2020 07:00:00 12,0 9,4 - 22 12 - - S 0,4
22.05.2020 06:00:00 11,4 10,4 - 9 5 - - SSE 3,4
22.05.2020 05:00:00 11,3 9,9 - 22 12 50 27 E 1,6
22.05.2020 04:00:00 11,0 9,5 - 34 18 54 29 E 1,0
22.05.2020 03:00:00 11,5 9,1 - 21 11 - - E 0,4
22.05.2020 02:00:00 12,1 8,5 - 16 9 - - E 0,4
22.05.2020 01:00:00 14,3 6,7 - 16 9 - - E 0,0
22.05.2020 00:00:00 14,3 7,1 - 21 11 - - E 0,0
21.05.2020 23:00:00 13,7 6,9 - 8 4 - - E 0,0
21.05.2020 22:00:00 13,6 7,8 - 11 6 - - ESE 0,0
21.05.2020 21:00:00 11,9 8,8 - 2 1 - - SSE 0,0
21.05.2020 20:00:00 12,8 9,4 - 2 1 - - ENE 0,0
21.05.2020 19:00:00 12,6 9,2 - 4 2 - - S 0,0
21.05.2020 18:00:00 16,2 9,9 - 4 2 - - WSW 0,0
21.05.2020 17:00:00 14,0 9,1 - 15 8 - - SW 0,0
21.05.2020 16:00:00 14,5 9,3 - 18 10 - - SW 0,0

tt = Température de l'air
td = dewpoint
tt -20cm = Température de l'air -20cm
ff = Vitesse du vent
fx = gusts
dd = Direction du vent
rr = Quantités de précipitations

stations d'obs. à proximité